Shrewsbury, Missouri
Current Conditions -  °F | °C
As of 12:53 PM on Thursday 23 Oct 2014 (Local Time) from KCPS Reporting Station
Clear Clear  
Wind Chill: 61°   Ceiling: Unl
Heat Index: 61°   Visibility: 10mi
Dew Point: 44°   Wind: 7mph
Humidity: 54%   Direction: 220°SW
Pressure: 30.18"   Gusts: NA
Location:  38.5887°N, 90.3511°W
Report Text: KCPS 231753Z 22006KT 10SM CLR 16/07 A3018 RMK AO2 SLP221 T01610067 10161 20022 58013
Loading
Personal Weather Stations






























Interactive Weather Map
Tropical Storm Tracking
New forecast layout! Learn more

10-Day Weather Forecast

Advertisements
Track Severe Weather on mobile